Time;durP1;ratioP1;P1;durP2;ratioP2;P2;SDS_P1;SDS_P2;PMS_P1;PMS_P2;Temp;Humidity;BMP_temperature;BMP_pressure;BME280_temperature;BME280_humidity;BME280_pressure;Samples;Min_cycle;Max_cycle;Signal;HPM_P1;HPM_P2
2023/03/29 00:02:01;;;;;;;0.97;0.60;;;-0.60;99.90;;;;;;5102931;28;20958;-75
2023/03/29 00:04:28;;;;;;;2.90;0.90;;;-0.60;99.90;;;;;;5101345;28;20563;-77
2023/03/29 00:06:55;;;;;;;1.43;0.97;;;-0.60;99.90;;;;;;5102535;28;20450;-76
2023/03/29 00:09:25;;;;;;;1.53;1.07;;;-0.70;99.90;;;;;;5103428;28;21063;-77
2023/03/29 00:11:53;;;;;;;2.20;1.00;;;-0.60;99.90;;;;;;5101303;28;21025;-76
2023/03/29 00:14:20;;;;;;;1.73;0.90;;;-0.50;99.90;;;;;;5102169;28;20527;-76
2023/03/29 00:16:47;;;;;;;2.30;1.15;;;-0.60;99.90;;;;;;5103354;28;20459;-76
2023/03/29 00:19:15;;;;;;;4.37;0.97;;;-0.40;99.90;;;;;;5106593;28;20205;-75
2023/03/29 00:21:41;;;;;;;1.23;1.10;;;-0.50;99.90;;;;;;5108308;28;20486;-75
2023/03/29 00:24:09;;;;;;;2.30;1.03;;;-0.60;99.90;;;;;;5103291;28;20455;-77
2023/03/29 00:26:35;;;;;;;1.83;1.00;;;-0.70;99.90;;;;;;5104900;28;20555;-76
2023/03/29 00:29:04;;;;;;;1.88;1.33;;;-0.70;99.90;;;;;;5102380;28;20555;-76
2023/03/29 00:31:31;;;;;;;3.25;1.75;;;-0.60;99.90;;;;;;5107961;28;20277;-76
2023/03/29 00:33:58;;;;;;;4.25;2.10;;;-0.50;99.90;;;;;;5097375;28;20197;-75
2023/03/29 00:36:25;;;;;;;2.35;2.03;;;-0.60;99.90;;;;;;5098405;28;20209;-75
2023/03/29 00:38:52;;;;;;;1.70;1.30;;;-0.60;99.90;;;;;;5107479;28;20204;-76
2023/03/29 00:41:20;;;;;;;5.20;2.67;;;-0.70;99.90;;;;;;5096799;28;20665;-76
2023/03/29 00:43:55;;;;;;;3.90;2.17;;;-0.80;99.90;;;;;;5101717;28;20204;-76
2023/03/29 00:46:25;;;;;;;2.30;1.05;;;-0.80;99.90;;;;;;5098239;28;20521;-75
2023/03/29 00:48:55;;;;;;;2.85;1.50;;;-0.90;99.90;;;;;;5103475;28;20599;-76
2023/03/29 00:51:25;;;;;;;4.63;2.40;;;-1.00;99.90;;;;;;5104589;28;20203;-77
2023/03/29 00:53:56;;;;;;;2.78;1.45;;;-0.90;99.90;;;;;;5102390;28;20701;-76
2023/03/29 00:56:28;;;;;;;4.70;2.38;;;-0.90;99.90;;;;;;5104331;28;20265;-76
2023/03/29 00:58:59;;;;;;;2.53;2.33;;;-0.90;99.90;;;;;;5094031;28;20300;-77
2023/03/29 01:01:32;;;;;;;2.53;1.60;;;-0.90;99.90;;;;;;5088370;28;20205;-75
2023/03/29 01:04:08;;;;;;;2.87;1.73;;;-1.00;99.90;;;;;;5104315;28;20459;-75
2023/03/29 01:06:38;;;;;;;2.10;1.23;;;-0.90;99.90;;;;;;5101098;28;20552;-76
2023/03/29 01:09:09;;;;;;;1.65;1.27;;;-0.90;99.90;;;;;;5103030;28;20496;-76
2023/03/29 01:11:41;;;;;;;2.60;1.80;;;-0.80;99.90;;;;;;5098547;28;20701;-77
2023/03/29 01:14:14;;;;;;;2.17;1.20;;;-0.80;99.90;;;;;;5098275;28;20261;-76
2023/03/29 01:16:44;;;;;;;2.40;0.93;;;-0.70;99.90;;;;;;5105565;28;20447;-76
2023/03/29 01:19:18;;;;;;;3.83;1.60;;;-0.70;99.90;;;;;;5099792;28;20451;-76
2023/03/29 01:21:50;;;;;;;2.33;0.93;;;-0.70;99.90;;;;;;5103272;28;21075;-75
2023/03/29 01:24:40;;;;;;;4.03;1.50;;;-0.70;99.90;;;;;;5105086;28;20443;-76
2023/03/29 01:27:15;;;;;;;3.80;1.52;;;-0.70;99.90;;;;;;5100780;28;20482;-77
2023/03/29 01:29:47;;;;;;;3.42;1.45;;;-0.60;99.90;;;;;;5104340;28;20249;-77
2023/03/29 01:32:21;;;;;;;3.20;1.30;;;-0.60;99.90;;;;;;5106838;28;20205;-77
2023/03/29 01:34:53;;;;;;;2.10;1.00;;;-0.60;99.90;;;;;;5098741;28;20907;-78
2023/03/29 01:37:25;;;;;;;4.07;1.20;;;-0.60;99.90;;;;;;5100421;28;20513;-76
2023/03/29 01:39:52;;;;;;;2.87;1.27;;;-0.60;99.90;;;;;;5097167;28;20451;-75
2023/03/29 01:42:40;;;;;;;1.77;1.13;;;-0.60;99.90;;;;;;5094910;28;20551;-76
2023/03/29 01:45:13;;;;;;;2.57;1.37;;;-0.60;99.90;;;;;;5105252;28;20733;-77
2023/03/29 01:47:46;;;;;;;2.17;1.40;;;-0.60;99.90;;;;;;5104880;28;20462;-77
2023/03/29 01:50:19;;;;;;;2.30;1.20;;;-0.60;99.90;;;;;;5106609;28;20466;-79
2023/03/29 01:52:52;;;;;;;1.90;1.20;;;-0.60;99.90;;;;;;5103227;28;20477;-76
2023/03/29 01:55:22;;;;;;;2.10;1.10;;;-0.60;99.90;;;;;;5101786;28;20513;-75
2023/03/29 01:57:52;;;;;;;2.40;1.10;;;-0.60;99.90;;;;;;5104575;28;20474;-76
2023/03/29 02:00:26;;;;;;;2.50;1.30;;;-0.50;99.90;;;;;;5106247;28;20458;-77
2023/03/29 02:02:58;;;;;;;2.60;1.40;;;-0.50;99.90;;;;;;5100759;28;20470;-76
2023/03/29 02:05:28;;;;;;;5.93;1.93;;;-0.50;99.90;;;;;;5098402;28;20557;-76
2023/03/29 02:07:56;;;;;;;1.33;1.10;;;-0.40;99.90;;;;;;5096546;28;20524;-76
2023/03/29 02:10:24;;;;;;;2.17;1.70;;;-0.50;99.90;;;;;;5103923;28;21104;-77
2023/03/29 02:12:51;;;;;;;2.40;1.70;;;-0.50;99.90;;;;;;5092269;28;20818;-76
2023/03/29 02:15:22;;;;;;;2.05;1.60;;;-0.50;99.90;;;;;;5102328;28;20261;-77
2023/03/29 02:17:49;;;;;;;7.97;1.92;;;-0.50;99.90;;;;;;5095855;28;20204;-76
2023/03/29 02:20:21;;;;;;;2.42;1.58;;;-0.50;99.90;;;;;;5102836;28;20224;-79
2023/03/29 02:22:54;;;;;;;1.75;1.58;;;-0.60;99.90;;;;;;5104197;28;20230;-80
2023/03/29 02:25:23;;;;;;;1.42;1.00;;;-0.50;99.90;;;;;;5099727;28;20208;-79
2023/03/29 02:27:51;;;;;;;2.15;1.75;;;-0.50;99.90;;;;;;5102214;28;20305;-79
2023/03/29 02:30:21;;;;;;;1.90;1.30;;;-0.60;99.90;;;;;;5102605;28;20197;-79
2023/03/29 02:32:52;;;;;;;2.03;1.50;;;-0.60;99.90;;;;;;5104628;28;20932;-79
2023/03/29 02:35:25;;;;;;;7.68;1.90;;;-0.50;99.90;;;;;;5099345;28;20876;-79
2023/03/29 02:37:55;;;;;;;2.47;1.92;;;-0.40;99.90;;;;;;5100169;28;20201;-79
2023/03/29 02:40:24;;;;;;;2.50;1.67;;;-0.40;99.90;;;;;;5102725;28;20568;-79
2023/03/29 02:42:55;;;;;;;3.87;1.80;;;-0.40;99.90;;;;;;5097635;28;20489;-79
2023/03/29 02:45:25;;;;;;;2.72;1.45;;;-0.40;99.90;;;;;;5099504;28;20454;-79
2023/03/29 02:47:55;;;;;;;3.20;2.07;;;-0.40;99.90;;;;;;5099452;28;20196;-78
2023/03/29 02:50:24;;;;;;;3.45;1.90;;;-0.40;99.90;;;;;;5105009;28;20535;-79
2023/03/29 02:52:54;;;;;;;5.80;2.60;;;-0.30;99.90;;;;;;5096520;28;20269;-79
2023/03/29 02:55:24;;;;;;;4.05;1.55;;;-0.40;99.90;;;;;;5094169;28;20222;-79
2023/03/29 02:57:51;;;;;;;2.58;1.45;;;-0.40;99.90;;;;;;5094872;28;20229;-78
2023/03/29 03:00:21;;;;;;;2.50;1.50;;;-0.40;99.90;;;;;;5099764;28;20269;-77
2023/03/29 03:02:50;;;;;;;2.15;1.55;;;-0.40;99.90;;;;;;5102705;28;20785;-76
2023/03/29 03:05:18;;;;;;;2.10;1.23;;;-0.40;99.90;;;;;;5098192;28;20196;-75
2023/03/29 03:07:46;;;;;;;1.60;1.50;;;-0.40;99.90;;;;;;5097457;28;20535;-76
2023/03/29 03:10:13;;;;;;;3.13;1.35;;;-0.40;99.90;;;;;;5099598;28;20511;-77
2023/03/29 03:12:40;;;;;;;1.73;1.43;;;-0.30;99.90;;;;;;5105503;28;20676;-78
2023/03/29 03:15:09;;;;;;;3.87;1.90;;;-0.10;99.90;;;;;;5109274;28;20493;-77
2023/03/29 03:17:38;;;;;;;5.63;1.50;;;-0.10;99.90;;;;;;5108701;28;20451;-78
2023/03/29 03:20:11;;;;;;;2.23;1.23;;;-0.10;99.90;;;;;;5112434;28;20446;-77
2023/03/29 03:22:39;;;;;;;2.70;1.33;;;0.10;99.90;;;;;;5101200;28;21059;-77
2023/03/29 03:25:09;;;;;;;5.33;1.63;;;0.10;99.90;;;;;;5101249;28;20528;-77
2023/03/29 03:27:36;;;;;;;8.27;2.30;;;0.20;99.90;;;;;;5101733;28;20493;-77
2023/03/29 03:30:05;;;;;;;5.45;1.35;;;0.20;99.90;;;;;;5101153;28;20588;-78
2023/03/29 03:32:35;;;;;;;2.80;2.03;;;0.20;99.90;;;;;;5106001;28;20287;-77
2023/03/29 03:35:03;;;;;;;2.53;1.43;;;0.10;99.90;;;;;;5095291;28;20447;-75
2023/03/29 03:37:31;;;;;;;2.00;1.33;;;0.00;99.90;;;;;;5106284;28;20454;-77
2023/03/29 03:39:58;;;;;;;2.37;1.77;;;0.00;99.90;;;;;;5102654;28;20519;-76
2023/03/29 03:42:28;;;;;;;3.10;2.30;;;0.10;99.90;;;;;;5098336;28;21147;-79
2023/03/29 03:44:58;;;;;;;2.40;1.67;;;0.00;99.90;;;;;;5102872;28;20454;-78
2023/03/29 03:47:25;;;;;;;2.30;1.67;;;0.00;99.90;;;;;;5104966;28;20509;-78
2023/03/29 03:49:52;;;;;;;2.20;1.47;;;0.10;99.90;;;;;;5098479;28;20467;-76
2023/03/29 03:52:19;;;;;;;3.53;2.35;;;0.20;99.90;;;;;;5098410;28;20458;-76
2023/03/29 03:54:49;;;;;;;1.63;1.53;;;0.40;99.90;;;;;;5106142;28;20196;-77
2023/03/29 03:57:16;;;;;;;2.95;1.30;;;0.40;99.90;;;;;;5103349;28;20499;-77
2023/03/29 03:59:43;;;;;;;1.67;1.50;;;0.20;99.90;;;;;;5101550;28;20864;-76
2023/03/29 04:02:10;;;;;;;7.57;1.40;;;0.20;99.90;;;;;;5098025;28;20511;-77
2023/03/29 04:04:38;;;;;;;4.73;1.93;;;0.20;99.90;;;;;;5102270;28;20309;-78
2023/03/29 04:07:05;;;;;;;2.63;1.73;;;0.30;99.90;;;;;;5104309;28;20466;-77
2023/03/29 04:09:33;;;;;;;1.67;1.50;;;0.30;99.90;;;;;;5103919;28;20526;-79
2023/03/29 04:12:01;;;;;;;1.87;1.30;;;0.20;99.90;;;;;;5101283;28;20543;-77
2023/03/29 04:14:30;;;;;;;2.03;1.87;;;0.20;99.90;;;;;;5103616;28;20450;-77
2023/03/29 04:16:58;;;;;;;1.40;1.30;;;0.20;99.90;;;;;;5096174;28;21212;-77
2023/03/29 04:19:25;;;;;;;1.93;1.53;;;0.20;99.90;;;;;;5103673;28;20201;-76
2023/03/29 04:21:52;;;;;;;2.47;1.43;;;0.20;99.90;;;;;;5105869;28;20484;-77
2023/03/29 04:24:19;;;;;;;2.13;1.77;;;0.30;99.90;;;;;;5103446;28;20522;-78
2023/03/29 04:26:47;;;;;;;7.03;2.33;;;0.30;99.90;;;;;;5101114;28;20486;-76
2023/03/29 04:29:15;;;;;;;2.30;2.10;;;0.30;99.90;;;;;;5102843;28;20904;-76
2023/03/29 04:31:43;;;;;;;5.78;3.10;;;0.30;99.90;;;;;;5095069;28;20817;-76
2023/03/29 04:34:10;;;;;;;4.03;2.20;;;0.30;99.90;;;;;;5104065;28;20262;-76
2023/03/29 04:36:37;;;;;;;5.43;3.27;;;0.30;99.90;;;;;;5098444;28;20860;-77
2023/03/29 04:39:06;;;;;;;4.20;2.28;;;0.40;99.90;;;;;;5103494;28;20533;-77
2023/03/29 04:41:33;;;;;;;4.38;1.88;;;0.40;99.90;;;;;;5101589;28;20213;-77
2023/03/29 04:44:01;;;;;;;3.33;2.80;;;0.40;99.90;;;;;;5098146;28;20223;-77
2023/03/29 04:46:31;;;;;;;3.57;1.77;;;0.40;99.90;;;;;;5103041;28;20477;-77
2023/03/29 04:48:58;;;;;;;5.53;2.10;;;0.40;99.90;;;;;;5096669;28;20450;-77
2023/03/29 04:51:25;;;;;;;5.23;2.93;;;0.40;99.90;;;;;;5101149;28;20503;-76
2023/03/29 04:53:52;;;;;;;10.27;2.97;;;0.40;99.90;;;;;;5095420;28;20893;-77
2023/03/29 04:56:18;;;;;;;2.27;2.07;;;0.60;99.90;;;;;;5101064;28;20526;-77
2023/03/29 04:58:45;;;;;;;2.97;2.47;;;0.60;99.90;;;;;;5107095;28;20531;-78
2023/03/29 05:01:12;;;;;;;3.90;2.30;;;0.70;99.90;;;;;;5100279;28;20462;-78
2023/03/29 05:03:41;;;;;;;3.73;2.03;;;0.70;99.90;;;;;;5101109;28;21353;-76
2023/03/29 05:06:10;;;;;;;1.40;1.30;;;0.70;99.90;;;;;;5101219;28;20547;-78
2023/03/29 05:08:39;;;;;;;2.43;1.83;;;0.70;99.90;;;;;;5099198;28;20462;-77
2023/03/29 05:11:06;;;;;;;1.97;1.43;;;0.90;99.90;;;;;;5103799;28;20458;-76
2023/03/29 05:13:34;;;;;;;1.30;1.20;;;1.00;99.90;;;;;;5097665;28;20470;-76
2023/03/29 05:16:01;;;;;;;2.37;1.57;;;1.00;99.90;;;;;;5099733;28;20201;-78
2023/03/29 05:18:28;;;;;;;3.80;2.20;;;1.10;99.90;;;;;;5100062;28;20463;-76
2023/03/29 05:20:58;;;;;;;2.80;1.80;;;1.00;99.90;;;;;;5103165;28;20515;-77
2023/03/29 05:23:25;;;;;;;6.70;2.60;;;1.10;99.90;;;;;;5097303;28;20493;-76
2023/03/29 05:25:52;;;;;;;1.93;1.47;;;1.00;99.90;;;;;;5102716;28;20477;-77
2023/03/29 05:28:20;;;;;;;3.23;2.10;;;0.90;99.90;;;;;;5104162;28;20822;-78
2023/03/29 05:30:47;;;;;;;2.30;2.10;;;1.00;99.90;;;;;;5094990;28;20474;-76
2023/03/29 05:33:15;;;;;;;3.97;1.80;;;1.00;99.90;;;;;;5101610;28;20470;-78
2023/03/29 05:35:42;;;;;;;2.10;1.90;;;1.10;99.90;;;;;;5094157;28;20466;-78
2023/03/29 05:38:10;;;;;;;7.03;2.00;;;1.00;99.90;;;;;;5101991;28;20459;-76
2023/03/29 05:40:37;;;;;;;3.93;2.80;;;1.00;99.90;;;;;;5100554;28;20527;-76
2023/03/29 05:43:04;;;;;;;2.90;1.73;;;1.00;99.90;;;;;;5100612;28;20519;-76
2023/03/29 05:45:32;;;;;;;6.97;2.17;;;0.90;99.90;;;;;;5097996;28;20515;-77
2023/03/29 05:47:59;;;;;;;4.60;3.23;;;1.00;99.90;;;;;;5100822;28;20475;-76
2023/03/29 05:50:26;;;;;;;3.77;2.70;;;0.90;99.90;;;;;;5099956;28;20466;-78
2023/03/29 05:52:53;;;;;;;3.40;1.90;;;0.80;99.90;;;;;;5102677;28;20515;-79
2023/03/29 05:55:22;;;;;;;8.30;2.33;;;0.80;99.90;;;;;;5099244;28;20466;-77
2023/03/29 05:57:49;;;;;;;3.40;2.23;;;0.70;99.90;;;;;;5099497;28;20454;-78
2023/03/29 06:00:22;;;;;;;5.40;2.70;;;0.70;99.90;;;;;;5104255;28;20468;-78
2023/03/29 06:02:51;;;;;;;1.33;1.23;;;0.80;99.90;;;;;;5103152;28;20765;-80
2023/03/29 06:05:19;;;;;;;3.43;2.20;;;0.70;99.90;;;;;;5106154;28;20967;-79
2023/03/29 06:07:47;;;;;;;4.57;2.90;;;0.70;99.90;;;;;;5104147;28;20485;-78
2023/03/29 06:10:16;;;;;;;4.17;3.87;;;0.60;99.90;;;;;;5103733;28;20462;-78
2023/03/29 06:12:45;;;;;;;3.83;3.63;;;0.60;99.90;;;;;;5102819;28;20577;-78
2023/03/29 06:15:13;;;;;;;1.73;1.63;;;0.60;99.90;;;;;;5103650;28;20466;-76
2023/03/29 06:17:40;;;;;;;1.30;1.20;;;0.80;99.90;;;;;;5098564;28;21009;-76
2023/03/29 06:20:10;;;;;;;1.70;1.47;;;0.90;99.90;;;;;;5094402;28;20459;-77
2023/03/29 06:22:40;;;;;;;1.73;1.40;;;0.90;99.90;;;;;;5099087;28;20467;-78
2023/03/29 06:25:09;;;;;;;5.10;1.50;;;0.90;99.90;;;;;;5101183;28;20543;-78
2023/03/29 06:27:37;;;;;;;2.00;1.23;;;1.00;99.90;;;;;;5104206;28;20496;-78
2023/03/29 06:30:07;;;;;;;5.93;1.67;;;1.00;99.90;;;;;;5100738;28;21208;-78
2023/03/29 06:32:34;;;;;;;2.47;2.27;;;1.00;99.90;;;;;;5096421;28;20512;-78
2023/03/29 06:35:02;;;;;;;7.77;2.47;;;0.90;99.90;;;;;;5098852;28;20758;-80
2023/03/29 06:37:29;;;;;;;2.20;1.20;;;0.90;99.90;;;;;;5102062;28;20467;-78
2023/03/29 06:39:56;;;;;;;1.88;1.58;;;0.90;99.90;;;;;;5093216;28;21181;-81
2023/03/29 06:42:23;;;;;;;2.43;1.90;;;0.90;99.90;;;;;;5092819;28;20201;-79
2023/03/29 06:44:51;;;;;;;2.33;1.57;;;0.90;99.90;;;;;;5090534;28;20541;-78
2023/03/29 06:47:19;;;;;;;1.97;1.73;;;0.90;99.90;;;;;;5096002;28;20458;-79
2023/03/29 06:49:46;;;;;;;2.90;1.97;;;0.90;99.90;;;;;;5101055;28;20450;-78
2023/03/29 06:52:13;;;;;;;9.87;4.10;;;0.90;99.90;;;;;;5101499;28;20462;-78
2023/03/29 06:54:40;;;;;;;2.90;2.53;;;0.90;99.90;;;;;;5098440;28;20511;-77
2023/03/29 06:57:07;;;;;;;3.77;3.07;;;1.00;99.90;;;;;;5097893;28;20455;-77
2023/03/29 06:59:34;;;;;;;9.60;6.30;;;1.10;99.90;;;;;;5105798;28;20466;-80
2023/03/29 07:02:01;;;;;;;8.00;5.60;;;1.00;99.90;;;;;;5097997;28;20494;-78
2023/03/29 07:04:31;;;;;;;5.37;2.97;;;1.00;99.90;;;;;;5093462;28;20581;-77
2023/03/29 07:07:02;;;;;;;4.97;3.10;;;0.90;99.90;;;;;;5097116;28;20463;-77
2023/03/29 07:09:29;;;;;;;5.37;4.30;;;0.70;99.90;;;;;;5094803;28;20486;-77
2023/03/29 07:11:57;;;;;;;15.73;14.00;;;0.50;99.90;;;;;;5099975;28;20450;-77
2023/03/29 07:14:27;;;;;;;4.60;3.60;;;0.50;99.90;;;;;;5099161;28;20749;-78
2023/03/29 07:16:55;;;;;;;2.95;2.70;;;0.40;99.90;;;;;;5098397;28;20467;-78
2023/03/29 07:19:24;;;;;;;5.37;4.87;;;0.50;99.90;;;;;;5100336;28;20218;-78
2023/03/29 07:21:53;;;;;;;6.70;6.10;;;0.50;99.90;;;;;;5104465;28;21163;-80
2023/03/29 07:24:20;;;;;;;2.27;2.07;;;0.50;99.90;;;;;;5098967;28;20724;-77
2023/03/29 07:26:48;;;;;;;4.13;3.40;;;0.40;99.90;;;;;;5094638;28;20494;-78
2023/03/29 07:29:15;;;;;;;7.70;5.33;;;0.40;99.90;;;;;;5099480;28;20523;-78
2023/03/29 07:31:43;;;;;;;5.60;3.67;;;0.60;99.90;;;;;;5104470;28;20512;-78
2023/03/29 07:34:10;;;;;;;5.80;5.10;;;0.70;99.90;;;;;;5089476;28;20451;-78
2023/03/29 07:36:38;;;;;;;4.40;4.00;;;0.80;99.90;;;;;;5101278;28;20459;-78
2023/03/29 07:39:08;;;;;;;6.17;5.07;;;0.90;99.90;;;;;;5098312;28;20462;-78
2023/03/29 07:41:35;;;;;;;7.20;6.50;;;1.00;99.90;;;;;;5096816;28;20454;-79
2023/03/29 07:44:08;;;;;;;9.60;7.50;;;1.10;99.90;;;;;;5097686;28;20492;-78
2023/03/29 07:46:35;;;;;;;4.03;3.50;;;1.10;99.90;;;;;;5095761;28;20995;-78
2023/03/29 07:49:03;;;;;;;7.57;6.67;;;1.10;99.90;;;;;;5102240;28;21121;-79
2023/03/29 07:51:30;;;;;;;8.63;6.27;;;1.20;99.90;;;;;;5105596;28;20453;-76
2023/03/29 07:53:57;;;;;;;8.93;3.37;;;1.40;99.90;;;;;;5100605;28;20462;-79
2023/03/29 07:56:25;;;;;;;5.90;2.60;;;1.40;99.90;;;;;;5094487;28;20981;-77
2023/03/29 07:58:52;;;;;;;4.00;3.10;;;1.30;99.90;;;;;;5096686;28;20515;-78
2023/03/29 08:01:20;;;;;;;4.87;4.47;;;1.40;99.90;;;;;;5103928;28;21153;-82
2023/03/29 08:03:47;;;;;;;5.43;5.00;;;1.50;99.90;;;;;;5104804;28;20990;-79
2023/03/29 08:06:15;;;;;;;4.00;3.70;;;1.50;99.90;;;;;;5101625;28;20493;-78
2023/03/29 08:08:43;;;;;;;7.47;5.40;;;1.60;99.90;;;;;;5102196;27;20553;-78
2023/03/29 08:11:10;;;;;;;11.40;6.63;;;1.50;99.90;;;;;;5101563;28;20466;-82
2023/03/29 08:13:38;;;;;;;6.87;5.80;;;1.50;99.90;;;;;;5101717;28;20995;-78
2023/03/29 08:16:06;;;;;;;8.30;5.50;;;1.40;99.90;;;;;;5103502;28;20817;-78
2023/03/29 08:18:33;;;;;;;6.97;6.37;;;1.50;99.90;;;;;;5106491;28;20466;-79
2023/03/29 08:21:00;;;;;;;4.40;2.70;;;1.50;99.90;;;;;;5107349;28;20519;-80
2023/03/29 08:23:27;;;;;;;6.33;3.80;;;1.60;99.90;;;;;;5106155;28;20507;-78
2023/03/29 08:25:54;;;;;;;2.87;2.67;;;1.70;99.90;;;;;;5107740;28;20486;-81
2023/03/29 08:28:22;;;;;;;4.10;3.70;;;1.70;99.90;;;;;;5100616;28;20546;-80
2023/03/29 08:30:51;;;;;;;9.37;6.30;;;1.80;99.90;;;;;;5105556;28;20467;-78
2023/03/29 08:33:18;;;;;;;5.30;4.80;;;1.80;99.90;;;;;;5104806;28;20495;-77
2023/03/29 08:35:45;;;;;;;4.87;4.13;;;1.90;99.90;;;;;;5107301;28;20446;-78
2023/03/29 08:38:13;;;;;;;4.40;4.07;;;2.10;99.90;;;;;;5106252;28;20542;-77
2023/03/29 08:40:40;;;;;;;4.23;3.37;;;2.30;99.90;;;;;;5101340;28;20524;-78
2023/03/29 08:43:32;;;;;;;3.60;2.50;;;2.20;99.90;;;;;;5106369;28;20466;-78
2023/03/29 08:46:10;;;;;;;3.83;2.60;;;2.20;99.90;;;;;;5096462;28;20904;-77
2023/03/29 08:48:41;;;;;;;4.10;3.03;;;2.30;99.90;;;;;;5097204;28;20450;-77
2023/03/29 08:51:20;;;;;;;4.33;3.67;;;2.10;99.90;;;;;;5099722;28;20459;-78
2023/03/29 08:53:53;;;;;;;3.30;3.00;;;2.30;99.90;;;;;;5098202;28;20515;-78
2023/03/29 08:56:24;;;;;;;7.57;6.87;;;2.70;99.90;;;;;;5101172;28;20459;-78
2023/03/29 08:58:53;;;;;;;4.07;3.67;;;2.80;99.90;;;;;;5106542;28;20740;-77
2023/03/29 09:01:23;;;;;;;18.83;9.50;;;2.90;99.90;;;;;;5110062;28;20534;-77
2023/03/29 09:04:00;;;;;;;3.30;3.10;;;3.00;99.90;;;;;;5107945;28;21006;-78
2023/03/29 09:06:27;;;;;;;2.00;1.80;;;2.80;99.90;;;;;;5106237;28;20505;-80
2023/03/29 09:08:54;;;;;;;5.77;5.17;;;2.60;99.90;;;;;;5100525;28;20463;-77
2023/03/29 09:11:34;;;;;;;8.10;6.50;;;2.60;99.90;;;;;;5103899;28;20462;-78
2023/03/29 09:14:15;;;;;;;13.10;8.97;;;2.70;99.90;;;;;;5101726;28;20455;-77
2023/03/29 09:16:51;;;;;;;41.53;28.40;;;2.80;99.90;;;;;;5106476;28;20462;-77
2023/03/29 09:19:26;;;;;;;5.97;5.47;;;3.00;99.90;;;;;;5095675;28;20939;-80
2023/03/29 09:22:03;;;;;;;7.83;6.73;;;3.20;99.90;;;;;;5096438;28;20467;-77
2023/03/29 09:24:47;;;;;;;21.43;13.50;;;3.00;99.90;;;;;;5100665;28;20478;-79
2023/03/29 09:27:20;;;;;;;34.83;19.43;;;3.00;99.90;;;;;;5106247;28;20555;-77
2023/03/29 09:30:03;;;;;;;29.83;14.23;;;3.20;99.90;;;;;;5096058;28;20523;-77
2023/03/29 09:32:38;;;;;;;306.43;134.87;;;3.20;99.90;;;;;;5092838;28;20944;-77
2023/03/29 09:35:17;;;;;;;16.90;10.20;;;3.10;99.90;;;;;;5097649;28;20470;-79
2023/03/29 09:37:45;;;;;;;12.53;5.40;;;2.90;99.90;;;;;;5098184;28;20462;-78
2023/03/29 09:40:15;;;;;;;7.70;4.90;;;2.80;99.90;;;;;;5097116;28;20466;-76
2023/03/29 09:42:44;;;;;;;41.53;21.43;;;2.70;99.90;;;;;;5100322;28;20459;-77
2023/03/29 09:45:12;;;;;;;155.10;75.60;;;2.90;99.90;;;;;;5103426;28;20859;-77
2023/03/29 09:47:46;;;;;;;6.37;5.03;;;3.00;99.90;;;;;;5103071;28;20439;-78
2023/03/29 09:50:18;;;;;;;10.87;7.53;;;3.30;99.90;;;;;;5105988;28;20434;-77
2023/03/29 09:52:45;;;;;;;30.97;15.60;;;3.50;99.90;;;;;;5100046;28;20966;-77
2023/03/29 09:55:16;;;;;;;11.10;8.00;;;3.50;99.90;;;;;;5099690;28;20512;-78
2023/03/29 09:57:43;;;;;;;2.33;2.13;;;3.70;99.90;;;;;;5105995;28;20469;-78
2023/03/29 10:00:12;;;;;;;6.77;6.23;;;3.70;99.90;;;;;;5104944;27;20473;-77
2023/03/29 10:02:41;;;;;;;5.60;5.20;;;4.00;99.90;;;;;;5092625;28;20470;-78
2023/03/29 10:05:15;;;;;;;4.30;3.23;;;3.90;99.90;;;;;;5104800;28;21043;-78
2023/03/29 10:07:48;;;;;;;27.60;24.63;;;3.80;99.90;;;;;;5086839;28;20467;-80
2023/03/29 10:10:22;;;;;;;16.27;14.57;;;4.00;99.90;;;;;;5088592;28;20455;-77
2023/03/29 10:12:51;;;;;;;5.27;4.77;;;4.20;99.90;;;;;;5100467;28;20440;-77
2023/03/29 10:15:19;;;;;;;12.10;10.93;;;4.10;99.90;;;;;;5104518;28;20516;-80
2023/03/29 10:17:47;;;;;;;6.50;3.10;;;4.10;99.90;;;;;;5101387;28;20558;-78
2023/03/29 10:20:17;;;;;;;1.37;1.20;;;4.20;99.90;;;;;;5103869;28;20446;-77
2023/03/29 10:22:48;;;;;;;1.97;1.77;;;3.90;99.90;;;;;;5103408;28;20455;-77
2023/03/29 10:25:17;;;;;;;3.50;3.20;;;4.00;99.90;;;;;;5097897;28;20489;-78
2023/03/29 10:27:47;;;;;;;1.67;1.37;;;4.10;99.90;;;;;;5099592;28;20486;-77
2023/03/29 10:30:22;;;;;;;2.47;2.27;;;4.30;99.90;;;;;;5096085;28;20479;-78
2023/03/29 10:32:57;;;;;;;1.37;1.27;;;4.50;99.90;;;;;;5093215;28;20502;-77
2023/03/29 10:35:28;;;;;;;2.50;1.43;;;4.30;99.90;;;;;;5104460;28;20560;-76
2023/03/29 10:37:58;;;;;;;1.90;1.30;;;4.60;99.90;;;;;;5102751;28;20954;-77
2023/03/29 10:40:32;;;;;;;1.90;1.57;;;4.60;99.90;;;;;;5099419;28;20470;-77
2023/03/29 10:43:01;;;;;;;2.80;0.97;;;4.70;99.90;;;;;;5094125;28;20835;-76
2023/03/29 10:45:31;;;;;;;2.10;1.33;;;4.70;99.90;;;;;;5101629;28;20490;-76
2023/03/29 10:47:59;;;;;;;3.73;1.10;;;4.70;99.90;;;;;;5090800;28;20454;-76
2023/03/29 10:50:33;;;;;;;1.70;1.60;;;4.50;99.90;;;;;;5096276;28;20470;-77
2023/03/29 10:53:01;;;;;;;3.13;1.10;;;4.80;99.90;;;;;;5097904;28;20468;-77
2023/03/29 10:55:34;;;;;;;2.07;1.03;;;5.10;99.90;;;;;;5092457;28;20470;-76
2023/03/29 10:58:14;;;;;;;1.53;1.20;;;5.50;99.90;;;;;;5099388;28;20474;-76
2023/03/29 11:00:49;;;;;;;3.70;1.23;;;5.60;99.90;;;;;;5097831;28;20458;-78
2023/03/29 11:03:33;;;;;;;4.00;3.63;;;6.00;99.90;;;;;;5094255;28;20447;-75
2023/03/29 11:06:09;;;;;;;3.10;1.83;;;5.60;99.90;;;;;;5095726;28;20478;-76
2023/03/29 11:08:48;;;;;;;1.10;0.90;;;6.00;99.90;;;;;;5097793;28;20474;-80
2023/03/29 11:11:39;;;;;;;1.03;0.90;;;5.80;99.90;;;;;;5093276;28;20470;-76
2023/03/29 11:14:13;;;;;;;1.40;1.20;;;5.80;99.90;;;;;;5096806;28;20728;-76
2023/03/29 11:16:46;;;;;;;0.87;0.70;;;5.90;99.90;;;;;;5093496;28;20467;-82
2023/03/29 11:19:41;;;;;;;2.23;2.03;;;6.10;99.90;;;;;;5098854;28;20501;-80
2023/03/29 11:22:16;;;;;;;1.40;1.10;;;6.20;99.90;;;;;;5094445;28;20463;-80
2023/03/29 11:25:04;;;;;;;1.43;1.33;;;6.00;99.90;;;;;;5088906;28;20483;-79
2023/03/29 11:27:38;;;;;;;2.03;1.13;;;6.00;99.90;;;;;;5096452;28;20494;-80
2023/03/29 11:30:18;;;;;;;1.93;1.30;;;6.30;99.90;;;;;;5096019;28;20458;-78
2023/03/29 11:32:52;;;;;;;0.83;0.80;;;6.50;99.90;;;;;;5092939;28;20526;-80
2023/03/29 11:35:41;;;;;;;4.50;1.50;;;6.50;99.90;;;;;;5099432;28;20457;-80
2023/03/29 11:38:16;;;;;;;2.70;2.30;;;6.60;99.90;;;;;;5096852;28;20468;-79
2023/03/29 11:40:50;;;;;;;3.00;1.90;;;6.30;99.90;;;;;;5099776;28;20466;-79
2023/03/29 11:43:23;;;;;;;2.23;2.13;;;6.00;99.90;;;;;;5102732;28;20449;-79
2023/03/29 11:45:54;;;;;;;1.40;1.30;;;6.10;99.90;;;;;;5100697;28;20486;-78
2023/03/29 11:48:25;;;;;;;5.20;2.30;;;6.00;99.90;;;;;;5103276;28;20459;-79
2023/03/29 11:50:58;;;;;;;1.30;1.03;;;6.30;99.90;;;;;;5102966;28;20467;-79
2023/03/29 11:53:31;;;;;;;4.40;2.33;;;6.30;99.90;;;;;;5105752;28;20458;-80
2023/03/29 11:56:10;;;;;;;3.50;3.30;;;6.20;99.90;;;;;;5098083;28;20468;-76
2023/03/29 11:58:41;;;;;;;1.60;1.50;;;6.00;99.90;;;;;;5100403;28;20461;-78
2023/03/29 12:01:12;;;;;;;4.13;2.47;;;6.10;99.90;;;;;;5102336;28;20518;-77
2023/03/29 12:03:45;;;;;;;4.60;2.07;;;5.70;99.90;;;;;;5098669;28;20458;-78
2023/03/29 12:06:21;;;;;;;1.33;1.10;;;5.60;99.90;;;;;;5096686;28;20509;-80
2023/03/29 12:08:56;;;;;;;2.60;2.40;;;5.30;99.90;;;;;;5096723;28;20557;-78
2023/03/29 12:11:28;;;;;;;1.60;1.10;;;5.40;99.90;;;;;;5096118;28;20460;-78
2023/03/29 12:13:59;;;;;;;3.33;1.63;;;5.20;99.90;;;;;;5099667;28;20462;-79
2023/03/29 12:16:31;;;;;;;1.40;1.30;;;5.10;99.90;;;;;;5098842;28;21230;-81
2023/03/29 12:19:03;;;;;;;2.00;1.10;;;5.40;99.90;;;;;;5098870;28;20558;-80
2023/03/29 12:21:33;;;;;;;2.47;1.43;;;5.30;99.90;;;;;;5097372;28;20458;-77
2023/03/29 12:24:01;;;;;;;2.70;1.90;;;5.60;99.90;;;;;;5101028;28;20458;-78
2023/03/29 12:26:46;;;;;;;1.67;1.20;;;5.60;99.90;;;;;;5098454;28;20508;-77
2023/03/29 12:29:34;;;;;;;2.03;1.53;;;5.50;99.90;;;;;;5095396;28;20447;-78
2023/03/29 12:32:17;;;;;;;1.30;1.20;;;5.70;99.90;;;;;;5099522;28;20539;-81
2023/03/29 12:34:59;;;;;;;1.30;1.13;;;5.90;99.90;;;;;;5095769;28;20524;-79
2023/03/29 12:37:36;;;;;;;2.20;1.07;;;6.00;99.90;;;;;;5104068;28;20891;-77
2023/03/29 12:40:11;;;;;;;1.37;1.20;;;6.10;99.90;;;;;;5096328;28;21013;-77
2023/03/29 12:42:45;;;;;;;4.43;1.10;;;6.00;99.90;;;;;;5096463;28;20471;-77
2023/03/29 12:45:18;;;;;;;4.60;1.50;;;6.30;99.90;;;;;;5101401;28;20541;-77
2023/03/29 12:47:46;;;;;;;2.80;1.00;;;6.60;99.90;;;;;;5097836;28;20456;-80
2023/03/29 12:50:24;;;;;;;5.50;1.50;;;6.90;99.90;;;;;;5102518;28;20451;-77
2023/03/29 12:52:53;;;;;;;0.87;0.80;;;7.00;99.90;;;;;;5097155;28;20455;-77
2023/03/29 12:55:29;;;;;;;0.93;0.80;;;6.60;99.90;;;;;;5098946;28;20462;-80
2023/03/29 12:58:05;;;;;;;1.40;1.27;;;6.80;99.90;;;;;;5102112;28;20470;-78
2023/03/29 13:00:42;;;;;;;2.00;1.33;;;7.00;99.90;;;;;;5100723;28;20454;-76
2023/03/29 13:03:21;;;;;;;0.80;0.80;;;7.10;99.90;;;;;;5101020;28;20488;-78
2023/03/29 13:06:01;;;;;;;1.23;1.13;;;7.30;99.90;;;;;;5101505;28;20481;-78
2023/03/29 13:08:36;;;;;;;1.13;1.00;;;7.50;99.90;;;;;;5096283;28;20469;-78
2023/03/29 13:11:04;;;;;;;1.63;1.10;;;7.50;99.90;;;;;;5092327;28;20520;-78